Time;durP1;ratioP1;P1;durP2;ratioP2;P2;SDS_P1;SDS_P2;PMS_P1;PMS_P2;Temp;Humidity;BMP_temperature;BMP_pressure;BME280_temperature;BME280_humidity;BME280_pressure;Samples;Min_cycle;Max_cycle;Signal;HPM_P1;HPM_P2
2023/04/09 00:01:10;;;;;;;16.25;7.82;;;5.50;99.90;;;;;;5049857;28;20021;-45
2023/04/09 00:03:37;;;;;;;13.25;7.95;;;5.50;99.90;;;;;;5049860;28;20431;-44
2023/04/09 00:06:03;;;;;;;15.45;8.35;;;5.50;99.90;;;;;;5053655;28;20116;-46
2023/04/09 00:08:29;;;;;;;14.18;8.02;;;5.60;99.90;;;;;;5053361;28;20530;-46
2023/04/09 00:10:56;;;;;;;17.95;9.52;;;5.60;99.90;;;;;;5052083;28;20041;-44
2023/04/09 00:13:22;;;;;;;20.35;10.43;;;5.60;99.90;;;;;;5047614;28;20060;-46
2023/04/09 00:15:49;;;;;;;18.13;9.93;;;5.60;99.90;;;;;;5050559;28;20040;-46
2023/04/09 00:18:15;;;;;;;18.88;10.52;;;5.60;99.90;;;;;;5045710;28;20037;-49
2023/04/09 00:20:42;;;;;;;17.23;9.57;;;5.70;99.90;;;;;;5053369;28;20032;-46
2023/04/09 00:23:08;;;;;;;17.83;9.80;;;5.60;99.90;;;;;;5053264;28;20088;-47
2023/04/09 00:25:34;;;;;;;17.80;9.05;;;5.60;99.90;;;;;;5053038;28;20037;-44
2023/04/09 00:28:00;;;;;;;17.20;9.25;;;5.60;99.90;;;;;;5052008;28;20300;-44
2023/04/09 00:30:30;;;;;;;18.90;9.07;;;5.60;99.90;;;;;;5053112;28;20472;-43
2023/04/09 00:32:57;;;;;;;15.93;8.93;;;5.50;99.90;;;;;;5053134;28;20407;-44
2023/04/09 00:35:22;;;;;;;18.08;9.63;;;5.50;99.90;;;;;;5053120;28;20028;-44
2023/04/09 00:37:48;;;;;;;20.27;10.07;;;5.50;99.90;;;;;;5052931;28;20021;-44
2023/04/09 00:40:14;;;;;;;19.98;10.57;;;5.50;99.90;;;;;;5051566;28;20088;-44
2023/04/09 00:42:40;;;;;;;20.75;10.35;;;5.40;99.90;;;;;;5045278;28;20468;-43
2023/04/09 00:45:07;;;;;;;18.38;10.25;;;5.40;99.90;;;;;;5052922;28;20575;-50
2023/04/09 00:47:34;;;;;;;23.58;11.43;;;5.40;99.90;;;;;;5052914;28;20063;-52
2023/04/09 00:50:00;;;;;;;22.13;9.43;;;5.40;99.90;;;;;;5053255;28;20036;-44
2023/04/09 00:52:29;;;;;;;21.73;11.02;;;5.40;99.90;;;;;;5052723;28;20033;-44
2023/04/09 00:54:55;;;;;;;17.98;10.57;;;5.40;99.90;;;;;;5052964;28;20044;-44
2023/04/09 00:57:21;;;;;;;23.38;11.32;;;5.40;99.90;;;;;;5052641;28;20021;-44
2023/04/09 00:59:47;;;;;;;23.95;12.65;;;5.40;99.90;;;;;;5030156;28;20047;-44
2023/04/09 01:02:12;;;;;;;28.92;15.18;;;5.40;99.90;;;;;;5031279;28;20388;-46
2023/04/09 01:04:40;;;;;;;39.58;19.13;;;5.50;99.90;;;;;;5028382;28;20030;-53
2023/04/09 01:07:12;;;;;;;38.38;19.85;;;5.60;99.90;;;;;;5026619;28;20116;-44
2023/04/09 01:09:46;;;;;;;45.92;21.90;;;5.70;99.90;;;;;;5032218;28;20424;-48
2023/04/09 01:12:42;;;;;;;43.03;21.63;;;5.70;99.90;;;;;;5030865;28;20025;-49
2023/04/09 01:15:17;;;;;;;49.05;23.83;;;5.80;99.90;;;;;;5027150;28;20029;-45
2023/04/09 01:17:52;;;;;;;44.60;22.50;;;5.90;99.90;;;;;;5032045;28;20148;-45
2023/04/09 01:20:36;;;;;;;48.95;24.67;;;5.90;99.90;;;;;;5032231;28;20112;-42
2023/04/09 01:23:37;;;;;;;47.72;24.70;;;6.00;99.90;;;;;;5032340;28;20060;-45
2023/04/09 01:26:36;;;;;;;44.28;22.73;;;6.00;99.90;;;;;;5020157;28;20491;-48
2023/04/09 01:29:04;;;;;;;48.40;25.15;;;6.00;99.90;;;;;;5029387;28;20018;-43
2023/04/09 01:31:35;;;;;;;53.45;24.58;;;6.10;99.90;;;;;;5032239;28;20036;-42
2023/04/09 01:34:02;;;;;;;48.70;23.55;;;6.10;99.90;;;;;;5032058;28;20104;-42
2023/04/09 01:36:30;;;;;;;44.45;23.30;;;6.10;99.90;;;;;;5032014;28;20033;-42
2023/04/09 01:38:56;;;;;;;48.25;22.95;;;6.20;99.90;;;;;;5031829;28;20025;-50
2023/04/09 01:41:23;;;;;;;46.80;23.42;;;6.30;99.90;;;;;;5031387;28;20493;-46
2023/04/09 01:43:50;;;;;;;45.60;23.48;;;6.30;99.90;;;;;;5030895;28;20120;-48
2023/04/09 01:46:17;;;;;;;46.40;22.45;;;6.20;99.90;;;;;;5031819;28;20079;-46
2023/04/09 01:48:43;;;;;;;44.10;22.42;;;6.20;99.90;;;;;;5031614;28;20040;-48
2023/04/09 01:51:12;;;;;;;41.55;21.83;;;6.20;99.90;;;;;;5031665;28;20108;-44
2023/04/09 01:53:38;;;;;;;40.97;20.92;;;6.20;99.90;;;;;;5031475;28;20053;-43
2023/04/09 01:56:04;;;;;;;37.97;21.17;;;6.10;99.90;;;;;;5031705;28;20061;-44
2023/04/09 01:58:32;;;;;;;37.80;19.25;;;6.10;99.90;;;;;;5031640;28;20022;-42
2023/04/09 02:01:19;;;;;;;40.85;20.75;;;6.10;99.90;;;;;;5031523;28;20132;-44
2023/04/09 02:03:57;;;;;;;36.42;20.20;;;6.00;99.90;;;;;;5031336;28;20485;-42
2023/04/09 02:06:40;;;;;;;37.75;19.92;;;6.00;99.90;;;;;;5042880;28;20025;-42
2023/04/09 02:09:08;;;;;;;41.30;19.30;;;6.00;99.90;;;;;;5051255;28;20029;-43
2023/04/09 02:11:39;;;;;;;35.78;19.90;;;5.90;99.90;;;;;;5040488;28;20083;-43
2023/04/09 02:14:07;;;;;;;42.67;21.65;;;5.90;99.90;;;;;;5023537;28;20108;-47
2023/04/09 02:16:33;;;;;;;40.38;21.98;;;5.90;99.90;;;;;;5051174;28;20044;-46
2023/04/09 02:19:00;;;;;;;41.22;21.80;;;5.80;99.90;;;;;;5051141;28;20072;-45
2023/04/09 02:21:27;;;;;;;41.05;20.40;;;5.80;99.90;;;;;;5051236;28;20029;-43
2023/04/09 02:23:54;;;;;;;43.00;21.45;;;5.80;99.90;;;;;;5050804;28;20036;-45
2023/04/09 02:26:20;;;;;;;44.63;23.08;;;5.80;99.90;;;;;;5051049;28;20021;-46
2023/04/09 02:28:46;;;;;;;41.42;22.48;;;5.70;99.90;;;;;;5050022;28;20029;-43
2023/04/09 02:31:11;;;;;;;45.60;21.85;;;5.70;99.90;;;;;;5051008;28;20025;-44
2023/04/09 02:33:37;;;;;;;46.08;22.42;;;5.60;99.90;;;;;;5050897;28;20025;-44
2023/04/09 02:36:04;;;;;;;37.65;20.85;;;5.60;99.90;;;;;;5050852;28;20021;-42
2023/04/09 02:38:30;;;;;;;41.10;20.20;;;5.60;99.90;;;;;;5050990;28;20036;-43
2023/04/09 02:40:55;;;;;;;44.13;21.70;;;5.60;99.90;;;;;;5045103;28;20492;-43
2023/04/09 02:43:21;;;;;;;43.35;22.05;;;5.50;99.90;;;;;;5039536;28;20083;-42
2023/04/09 02:45:47;;;;;;;41.15;21.95;;;5.50;99.90;;;;;;5030263;28;20124;-43
2023/04/09 02:48:12;;;;;;;38.58;20.42;;;5.50;99.90;;;;;;5030385;28;20500;-46
2023/04/09 02:50:38;;;;;;;41.90;21.48;;;5.40;99.90;;;;;;5030761;28;20037;-43
2023/04/09 02:53:04;;;;;;;47.88;22.42;;;5.40;99.90;;;;;;5030734;28;20075;-49
2023/04/09 02:55:29;;;;;;;45.22;23.05;;;5.40;99.90;;;;;;5030829;28;20540;-44
2023/04/09 02:57:55;;;;;;;49.55;21.58;;;5.40;99.90;;;;;;5030609;28;20392;-45
2023/04/09 03:00:20;;;;;;;50.80;23.65;;;5.40;99.90;;;;;;5030684;28;20029;-42
2023/04/09 03:02:46;;;;;;;44.80;21.77;;;5.40;99.90;;;;;;5030663;28;20465;-42
2023/04/09 03:05:12;;;;;;;44.53;22.95;;;5.40;99.90;;;;;;5030531;28;20439;-42
2023/04/09 03:07:37;;;;;;;47.65;22.17;;;5.40;99.90;;;;;;5030724;28;20068;-42
2023/04/09 03:10:03;;;;;;;43.10;21.50;;;5.40;99.90;;;;;;5030506;28;20464;-43
2023/04/09 03:12:29;;;;;;;50.58;22.33;;;5.40;99.90;;;;;;5029109;28;20018;-42
2023/04/09 03:14:54;;;;;;;44.42;21.83;;;5.40;99.90;;;;;;5030205;28;20036;-43
2023/04/09 03:17:20;;;;;;;48.95;23.10;;;5.40;99.90;;;;;;5030508;28;20528;-45
2023/04/09 03:19:46;;;;;;;45.78;22.17;;;5.40;99.90;;;;;;5030381;28;20034;-45
2023/04/09 03:22:11;;;;;;;51.35;24.00;;;5.50;99.90;;;;;;5030294;28;20056;-42
2023/04/09 03:24:37;;;;;;;50.70;23.95;;;5.40;99.90;;;;;;5030608;28;20036;-47
2023/04/09 03:27:02;;;;;;;45.42;21.65;;;5.50;99.90;;;;;;5030311;28;20029;-44
2023/04/09 03:29:28;;;;;;;51.92;23.63;;;5.40;99.90;;;;;;5030348;28;20033;-42
2023/04/09 03:31:54;;;;;;;48.75;22.63;;;5.50;99.90;;;;;;5030324;28;20512;-43
2023/04/09 03:34:19;;;;;;;49.72;23.30;;;5.50;99.90;;;;;;5030232;28;20030;-44
2023/04/09 03:36:45;;;;;;;45.97;22.02;;;5.50;99.90;;;;;;5030345;28;20065;-46
2023/04/09 03:39:11;;;;;;;48.70;23.15;;;5.50;99.90;;;;;;5031177;28;20037;-46
2023/04/09 03:41:36;;;;;;;49.97;23.48;;;5.50;99.90;;;;;;5033630;28;20084;-45
2023/04/09 03:44:02;;;;;;;47.65;22.42;;;5.50;99.90;;;;;;5033891;28;20044;-43
2023/04/09 03:46:27;;;;;;;54.42;25.23;;;5.50;99.90;;;;;;5034048;28;20087;-42
2023/04/09 03:48:53;;;;;;;51.42;24.38;;;5.50;99.90;;;;;;5034082;28;20672;-41
2023/04/09 03:51:18;;;;;;;51.63;24.30;;;5.50;99.90;;;;;;5034124;28;20026;-42
2023/04/09 03:53:44;;;;;;;53.92;25.38;;;5.50;99.90;;;;;;5032629;28;20434;-42
2023/04/09 03:56:10;;;;;;;56.03;24.58;;;5.60;99.90;;;;;;5033995;28;20030;-45
2023/04/09 03:58:36;;;;;;;55.58;24.30;;;5.60;99.90;;;;;;5033860;28;20465;-45
2023/04/09 04:01:02;;;;;;;56.28;25.35;;;5.60;99.90;;;;;;5033766;28;20026;-52
2023/04/09 04:03:28;;;;;;;52.60;23.90;;;5.70;99.90;;;;;;5033993;28;20024;-50
2023/04/09 04:05:58;;;;;;;52.20;23.98;;;5.60;99.90;;;;;;5034041;28;20029;-44
2023/04/09 04:08:24;;;;;;;48.10;22.92;;;5.70;99.90;;;;;;5033613;28;20025;-43
2023/04/09 04:10:49;;;;;;;52.88;24.38;;;5.60;99.90;;;;;;5033391;28;20086;-45
2023/04/09 04:13:15;;;;;;;51.42;23.90;;;5.60;99.90;;;;;;5033441;28;20412;-44
2023/04/09 04:15:41;;;;;;;50.97;22.95;;;5.60;99.90;;;;;;5032335;28;20496;-46
2023/04/09 04:18:07;;;;;;;50.63;22.98;;;5.60;99.90;;;;;;5033437;28;20037;-43
2023/04/09 04:20:34;;;;;;;49.53;22.95;;;5.60;99.90;;;;;;5033511;28;20385;-48
2023/04/09 04:22:59;;;;;;;50.75;23.55;;;5.60;99.90;;;;;;5033274;28;20047;-42
2023/04/09 04:25:25;;;;;;;51.05;22.80;;;5.60;99.90;;;;;;5031974;28;20045;-46
2023/04/09 04:27:51;;;;;;;48.25;23.48;;;5.60;99.90;;;;;;5033006;28;20021;-45
2023/04/09 04:30:16;;;;;;;44.17;21.08;;;5.50;99.90;;;;;;5033430;28;20025;-44
2023/04/09 04:32:42;;;;;;;41.55;21.83;;;5.50;99.90;;;;;;5033174;28;20424;-43
2023/04/09 04:35:08;;;;;;;58.00;25.05;;;5.50;99.90;;;;;;5033116;28;20113;-43
2023/04/09 04:37:33;;;;;;;52.97;23.20;;;5.50;99.90;;;;;;5033084;28;20021;-42
2023/04/09 04:40:04;;;;;;;48.20;22.73;;;5.50;99.90;;;;;;5032963;28;20038;-42
2023/04/09 04:42:29;;;;;;;51.47;22.77;;;5.50;99.90;;;;;;5032739;28;20030;-47
2023/04/09 04:44:55;;;;;;;53.25;23.77;;;5.50;99.90;;;;;;5033009;28;20037;-51
2023/04/09 04:47:21;;;;;;;56.75;23.63;;;5.50;99.90;;;;;;5031142;28;20018;-45
2023/04/09 04:49:46;;;;;;;60.38;25.45;;;5.50;99.90;;;;;;5033066;28;20068;-42
2023/04/09 04:52:12;;;;;;;58.25;25.23;;;5.60;99.90;;;;;;5031699;28;20155;-42
2023/04/09 04:54:39;;;;;;;54.53;23.70;;;5.60;99.90;;;;;;5032929;28;20053;-43
2023/04/09 04:57:04;;;;;;;59.63;26.33;;;5.70;99.90;;;;;;5032687;28;20040;-49
2023/04/09 04:59:30;;;;;;;67.03;27.88;;;5.70;99.90;;;;;;5032838;28;20025;-43
2023/04/09 05:01:56;;;;;;;72.90;27.13;;;5.80;99.90;;;;;;5032489;28;20182;-46
2023/04/09 05:04:21;;;;;;;71.05;27.48;;;5.80;99.90;;;;;;5031452;28;20068;-48
2023/04/09 05:06:47;;;;;;;66.65;27.05;;;5.90;99.90;;;;;;5032666;28;20040;-44
2023/04/09 05:09:13;;;;;;;63.78;25.77;;;5.90;99.90;;;;;;5032668;28;20520;-42
2023/04/09 05:11:38;;;;;;;73.18;25.77;;;6.00;99.90;;;;;;5032617;28;20480;-42
2023/04/09 05:14:05;;;;;;;62.88;24.58;;;6.00;99.90;;;;;;5032608;28;20026;-42
2023/04/09 05:16:30;;;;;;;62.13;23.70;;;6.00;99.90;;;;;;5032495;28;20029;-42
2023/04/09 05:18:56;;;;;;;65.88;24.73;;;6.10;99.90;;;;;;5032682;28;20400;-42
2023/04/09 05:21:22;;;;;;;75.53;27.02;;;6.10;99.90;;;;;;5032432;28;20021;-44
2023/04/09 05:23:47;;;;;;;72.53;25.23;;;6.10;99.90;;;;;;5032142;28;20504;-44
2023/04/09 05:26:13;;;;;;;74.75;26.55;;;6.20;99.90;;;;;;5032298;28;20124;-45
2023/04/09 05:28:39;;;;;;;78.15;26.55;;;6.20;99.90;;;;;;5032336;28;20025;-51
2023/04/09 05:31:10;;;;;;;72.50;25.50;;;6.30;99.90;;;;;;5032041;28;20021;-44
2023/04/09 05:33:37;;;;;;;84.03;26.67;;;6.30;99.90;;;;;;5032004;28;20120;-42
2023/04/09 05:36:02;;;;;;;79.13;24.40;;;6.30;99.90;;;;;;5032118;28;20396;-43
2023/04/09 05:38:28;;;;;;;89.20;27.42;;;6.30;99.90;;;;;;5031860;28;20025;-43
2023/04/09 05:40:54;;;;;;;94.72;25.90;;;6.40;99.90;;;;;;5031889;28;20099;-43
2023/04/09 05:43:20;;;;;;;83.90;25.63;;;6.30;99.90;;;;;;5032174;28;20101;-50
2023/04/09 05:45:46;;;;;;;129.75;25.00;;;6.40;99.90;;;;;;5031889;28;20039;-43
2023/04/09 05:48:12;;;;;;;71.93;22.00;;;6.40;99.90;;;;;;5031969;28;20025;-45
2023/04/09 05:50:37;;;;;;;65.43;22.90;;;6.40;99.90;;;;;;5031737;28;20065;-48
2023/04/09 05:53:03;;;;;;;77.10;22.95;;;6.50;99.90;;;;;;5031643;28;20017;-48
2023/04/09 05:55:31;;;;;;;72.78;22.38;;;6.50;99.90;;;;;;5031599;28;20115;-44
2023/04/09 05:57:56;;;;;;;91.72;22.83;;;6.50;99.90;;;;;;5031691;28;20022;-42
2023/04/09 06:00:22;;;;;;;102.78;21.17;;;6.60;99.90;;;;;;5031670;28;20033;-42
2023/04/09 06:02:48;;;;;;;75.85;20.85;;;6.60;99.90;;;;;;5031222;28;20091;-44
2023/04/09 06:05:14;;;;;;;107.80;21.05;;;6.70;99.90;;;;;;5031510;28;20038;-43
2023/04/09 06:07:40;;;;;;;70.57;21.40;;;6.80;99.90;;;;;;5031418;28;20452;-42
2023/04/09 06:10:06;;;;;;;99.20;20.48;;;6.90;99.90;;;;;;5031351;28;20028;-45
2023/04/09 06:12:36;;;;;;;101.43;20.38;;;6.90;99.90;;;;;;5030021;28;20021;-46
2023/04/09 06:15:03;;;;;;;90.20;17.67;;;7.00;99.90;;;;;;5031317;28;20044;-43
2023/04/09 06:17:29;;;;;;;53.13;19.30;;;7.10;99.90;;;;;;5030024;28;20409;-42
2023/04/09 06:19:54;;;;;;;58.80;18.27;;;7.00;99.90;;;;;;5029884;28;20506;-46
2023/04/09 06:22:20;;;;;;;48.60;17.02;;;7.00;99.90;;;;;;5031183;28;20049;-42
2023/04/09 06:24:46;;;;;;;37.70;17.20;;;7.00;99.90;;;;;;5031432;28;20041;-45
2023/04/09 06:27:11;;;;;;;72.10;17.95;;;7.00;99.90;;;;;;5031045;28;20026;-42
2023/04/09 06:29:37;;;;;;;49.17;18.77;;;7.00;99.90;;;;;;5031197;28;20085;-42
2023/04/09 06:32:03;;;;;;;43.75;17.88;;;7.10;99.90;;;;;;5030647;28;20021;-43
2023/04/09 06:34:28;;;;;;;64.70;18.67;;;7.10;99.90;;;;;;5031051;28;20030;-42
2023/04/09 06:36:54;;;;;;;62.70;20.52;;;7.20;99.90;;;;;;5030788;28;20400;-42
2023/04/09 06:39:20;;;;;;;54.47;19.83;;;7.30;99.90;;;;;;5031002;28;20472;-43
2023/04/09 06:41:46;;;;;;;57.78;20.55;;;7.40;99.90;;;;;;5030898;28;20056;-48
2023/04/09 06:44:12;;;;;;;46.60;19.45;;;7.50;99.90;;;;;;5030643;28;20467;-44
2023/04/09 06:46:37;;;;;;;51.10;20.05;;;7.50;99.90;;;;;;5031004;28;20029;-46
2023/04/09 06:49:03;;;;;;;57.17;21.08;;;7.50;99.90;;;;;;5030707;28;20024;-46
2023/04/09 06:51:29;;;;;;;43.80;18.77;;;7.60;99.90;;;;;;5030871;28;20036;-43
2023/04/09 06:53:54;;;;;;;47.88;18.55;;;7.70;99.90;;;;;;5030719;28;20105;-47
2023/04/09 06:56:20;;;;;;;48.05;20.50;;;7.80;99.90;;;;;;5030686;28;20021;-43
2023/04/09 06:58:46;;;;;;;51.65;21.92;;;7.80;99.90;;;;;;5030918;28;20048;-42
2023/04/09 07:01:11;;;;;;;47.88;21.25;;;7.90;99.90;;;;;;5030274;28;20018;-44
2023/04/09 07:03:37;;;;;;;50.28;21.42;;;7.90;99.90;;;;;;5029410;28;20022;-42
2023/04/09 07:06:03;;;;;;;60.65;24.70;;;7.90;99.90;;;;;;5030195;28;20374;-44
2023/04/09 07:08:29;;;;;;;62.33;24.33;;;8.10;99.90;;;;;;5030813;28;20378;-46
2023/04/09 07:10:55;;;;;;;58.88;23.75;;;8.20;99.90;;;;;;5030749;28;20036;-44
2023/04/09 07:13:21;;;;;;;70.30;26.38;;;8.20;99.90;;;;;;5030809;28;20537;-44
2023/04/09 07:15:47;;;;;;;57.60;24.83;;;8.20;99.90;;;;;;5034393;28;20051;-44
2023/04/09 07:18:12;;;;;;;61.22;25.90;;;8.30;99.90;;;;;;5034423;28;20099;-47
2023/04/09 07:20:38;;;;;;;69.63;26.65;;;8.40;99.90;;;;;;5034451;28;20358;-44
2023/04/09 07:23:04;;;;;;;69.82;24.95;;;8.50;99.90;;;;;;5034436;28;20515;-44
2023/04/09 07:25:29;;;;;;;101.57;26.77;;;8.40;99.90;;;;;;5019674;28;20034;-41
2023/04/09 07:27:55;;;;;;;131.50;26.92;;;8.30;99.90;;;;;;5020801;28;20026;-44
2023/04/09 07:30:21;;;;;;;82.10;26.63;;;8.20;99.90;;;;;;5024460;28;20021;-45
2023/04/09 07:32:47;;;;;;;88.55;25.15;;;8.30;99.90;;;;;;5023764;28;20028;-48
2023/04/09 07:35:12;;;;;;;86.50;25.98;;;8.20;99.90;;;;;;5030059;28;20029;-45
2023/04/09 07:37:38;;;;;;;75.07;25.65;;;8.30;99.90;;;;;;5034007;28;20083;-47
2023/04/09 07:40:04;;;;;;;67.43;24.35;;;8.10;99.90;;;;;;5034193;28;20022;-46
2023/04/09 07:42:30;;;;;;;62.00;23.20;;;8.30;99.90;;;;;;5033637;28;20017;-44
2023/04/09 07:44:56;;;;;;;77.25;24.52;;;8.40;99.90;;;;;;5033891;28;20038;-44
2023/04/09 07:47:22;;;;;;;85.22;24.10;;;8.30;99.90;;;;;;5033756;28;20017;-46
2023/04/09 07:49:48;;;;;;;84.25;26.42;;;8.30;99.90;;;;;;5032635;28;20436;-44
2023/04/09 07:52:14;;;;;;;60.70;25.23;;;8.30;99.90;;;;;;5034058;28;20465;-44
2023/04/09 07:54:40;;;;;;;67.38;25.58;;;8.40;99.90;;;;;;5033892;28;20515;-44
2023/04/09 07:57:06;;;;;;;78.00;26.50;;;8.50;99.90;;;;;;5033936;28;20055;-44
2023/04/09 07:59:33;;;;;;;69.03;26.80;;;8.70;99.90;;;;;;5033861;28;20018;-45
2023/04/09 08:01:58;;;;;;;63.58;26.02;;;8.70;99.90;;;;;;5032705;28;20021;-43
2023/04/09 08:04:25;;;;;;;83.65;27.52;;;8.80;99.90;;;;;;5024692;28;20172;-43
2023/04/09 08:06:52;;;;;;;64.70;27.05;;;8.80;99.90;;;;;;5026594;28;20371;-43
2023/04/09 08:09:21;;;;;;;64.00;26.73;;;8.90;99.90;;;;;;5019302;28;20033;-44
2023/04/09 08:11:48;;;;;;;59.57;26.37;;;9.00;99.90;;;;;;5022391;28;20104;-47
2023/04/09 08:14:14;;;;;;;61.55;26.25;;;9.10;99.90;;;;;;5022853;28;20036;-44
2023/04/09 08:16:42;;;;;;;57.67;24.90;;;9.10;99.90;;;;;;5018130;28;20477;-47
2023/04/09 08:19:09;;;;;;;66.82;27.35;;;9.10;99.90;;;;;;5022995;28;20037;-45
2023/04/09 08:21:43;;;;;;;52.70;25.67;;;9.20;99.90;;;;;;5026627;28;20061;-44
2023/04/09 08:24:12;;;;;;;60.97;26.48;;;9.30;99.90;;;;;;5029009;28;20392;-46
2023/04/09 08:26:41;;;;;;;55.63;26.77;;;9.40;99.90;;;;;;5029199;28;20021;-44
2023/04/09 08:29:07;;;;;;;;;;;9.50;99.90;;;;;;5022345;28;20036;-43
2023/04/09 08:31:35;;;;;;;56.70;26.92;;;9.60;99.90;;;;;;5032996;28;19905;-45
2023/04/09 08:34:01;;;;;;;59.33;26.80;;;9.60;99.90;;;;;;5022446;28;20035;-49
2023/04/09 08:36:26;;;;;;;57.97;26.88;;;9.40;99.90;;;;;;5032891;28;20092;-42
2023/04/09 08:38:54;;;;;;;64.18;29.52;;;9.60;99.90;;;;;;5033100;28;20025;-46
2023/04/09 08:41:23;;;;;;;64.90;30.10;;;9.80;99.90;;;;;;5033115;28;20508;-49
2023/04/09 08:43:50;;;;;;;53.53;27.45;;;10.00;99.90;;;;;;5032616;28;20108;-43
2023/04/09 08:46:17;;;;;;;56.45;29.73;;;10.20;99.90;;;;;;5030456;28;20037;-44
2023/04/09 08:48:44;;;;;;;57.10;29.33;;;10.50;99.90;;;;;;5032764;28;20079;-49
2023/04/09 08:51:20;;;;;;;57.88;28.80;;;10.70;99.90;;;;;;5032797;28;20432;-43
2023/04/09 08:53:56;;;;;;;57.30;29.63;;;10.70;99.90;;;;;;5021634;28;20026;-44
2023/04/09 08:56:22;;;;;;;57.28;30.58;;;11.00;99.90;;;;;;5020859;28;20037;-43
2023/04/09 08:58:48;;;;;;;59.85;30.25;;;11.30;99.90;;;;;;5014932;28;20513;-45
2023/04/09 09:01:31;;;;;;;53.38;28.52;;;11.50;99.90;;;;;;5028530;28;20033;-44
2023/04/09 09:04:01;;;;;;;55.60;29.63;;;11.70;99.90;;;;;;5024001;28;20056;-45
2023/04/09 09:06:31;;;;;;;59.47;31.60;;;11.70;99.90;;;;;;5041621;28;20051;-44
2023/04/09 09:09:08;;;;;;;55.35;30.98;;;11.50;99.90;;;;;;5049826;28;20017;-45
2023/04/09 09:11:38;;;;;;;57.88;29.98;;;11.50;99.90;;;;;;5043013;28;20064;-45
2023/04/09 09:14:06;;;;;;;55.15;30.77;;;11.90;99.90;;;;;;5035396;28;20017;-48
2023/04/09 09:16:34;;;;;;;56.72;30.92;;;12.40;99.90;;;;;;5032202;28;20013;-44
2023/04/09 09:19:01;;;;;;;51.83;30.00;;;13.10;99.90;;;;;;5032244;28;20083;-44
2023/04/09 09:21:28;;;;;;;50.05;28.80;;;14.30;99.90;;;;;;5031896;28;20108;-47
2023/04/09 09:23:53;;;;;;;47.58;29.30;;;15.40;99.90;;;;;;5032099;28;20021;-52
2023/04/09 09:26:24;;;;;;;44.92;29.27;;;16.20;99.90;;;;;;5032139;28;20523;-44
2023/04/09 09:28:51;;;;;;;44.00;27.75;;;16.60;99.90;;;;;;5031894;28;20028;-50
2023/04/09 09:31:18;;;;;;;43.85;29.23;;;15.70;99.90;;;;;;5031767;28;20029;-44
2023/04/09 09:33:45;;;;;;;42.47;29.15;;;16.00;99.90;;;;;;5031968;28;20022;-48
2023/04/09 09:36:11;;;;;;;42.17;27.83;;;16.20;99.90;;;;;;5031881;28;20044;-44
2023/04/09 09:38:55;;;;;;;43.47;29.35;;;16.80;99.90;;;;;;5031369;28;20037;-49
2023/04/09 09:41:20;;;;;;;41.28;27.58;;;17.70;99.90;;;;;;5031825;28;20046;-45
2023/04/09 09:43:46;;;;;;;36.53;26.13;;;19.10;91.50;;;;;;5031207;28;20052;-44
2023/04/09 09:46:12;;;;;;;40.83;29.00;;;20.50;90.00;;;;;;5031396;28;20029;-47
2023/04/09 09:48:38;;;;;;;38.67;26.42;;;19.80;81.00;;;;;;5031490;28;20037;-44
2023/04/09 09:51:11;;;;;;;37.08;27.08;;;20.00;89.40;;;;;;5031553;28;20033;-46
2023/04/09 09:53:39;;;;;;;36.70;26.85;;;20.70;80.00;;;;;;5031784;28;20026;-46
2023/04/09 09:56:07;;;;;;;39.42;27.88;;;19.80;77.50;;;;;;5031742;28;20022;-44
2023/04/09 09:58:51;;;;;;;38.30;28.08;;;19.20;81.10;;;;;;5031637;28;20108;-44
2023/04/09 10:01:20;;;;;;;37.05;27.35;;;19.00;84.40;;;;;;5031725;28;20029;-45
2023/04/09 10:03:48;;;;;;;36.72;27.45;;;20.10;81.00;;;;;;5030362;28;20029;-48
2023/04/09 10:06:14;;;;;;;36.35;27.02;;;20.90;80.00;;;;;;5030094;28;20029;-44
2023/04/09 10:08:41;;;;;;;36.00;26.50;;;20.40;75.00;;;;;;5031243;28;20067;-44
2023/04/09 10:11:07;;;;;;;38.78;26.42;;;20.10;78.10;;;;;;5029461;28;20043;-45
2023/04/09 10:13:37;;;;;;;37.97;28.38;;;19.50;78.50;;;;;;5030071;28;20468;-43
2023/04/09 10:16:03;;;;;;;39.28;27.30;;;18.90;80.80;;;;;;5031581;28;20049;-44
2023/04/09 10:18:33;;;;;;;37.75;26.98;;;18.20;83.20;;;;;;5031081;28;20021;-44
2023/04/09 10:21:18;;;;;;;37.83;27.00;;;17.40;85.90;;;;;;5031537;28;20025;-47
2023/04/09 10:23:47;;;;;;;40.45;28.42;;;17.40;88.50;;;;;;5030309;28;20026;-53
2023/04/09 10:26:12;;;;;;;41.88;27.75;;;17.00;88.80;;;;;;5029737;28;20037;-44
2023/04/09 10:28:38;;;;;;;42.30;27.33;;;17.70;88.70;;;;;;5030140;28;20029;-45
2023/04/09 10:31:06;;;;;;;36.90;25.65;;;19.10;85.60;;;;;;5030711;28;20090;-45
2023/04/09 10:33:32;;;;;;;32.05;22.50;;;20.70;82.50;;;;;;5030689;28;20033;-44
2023/04/09 10:36:04;;;;;;;31.70;22.48;;;22.80;74.10;;;;;;5030452;28;20037;-45
2023/04/09 10:38:37;;;;;;;28.77;22.02;;;23.70;64.40;;;;;;5029381;28;20126;-43
2023/04/09 10:41:20;;;;;;;33.00;22.77;;;24.00;64.80;;;;;;5018644;28;20045;-45
2023/04/09 10:43:46;;;;;;;29.30;21.65;;;24.30;60.40;;;;;;5030187;28;20171;-48
2023/04/09 10:46:39;;;;;;;30.67;22.40;;;22.70;61.60;;;;;;5030222;28;20029;-46
2023/04/09 10:49:18;;;;;;;28.67;21.00;;;23.80;63.60;;;;;;5028681;28;20484;-48
2023/04/09 10:52:09;;;;;;;25.08;20.30;;;24.80;58.30;;;;;;5030742;28;20412;-47
2023/04/09 10:54:36;;;;;;;30.77;24.20;;;25.50;57.50;;;;;;5030522;28;20241;-49
2023/04/09 10:57:12;;;;;;;30.80;23.17;;;25.20;55.00;;;;;;5030587;28;20026;-47
2023/04/09 10:59:43;;;;;;;26.88;21.15;;;25.30;56.80;;;;;;5030445;28;20481;-47
2023/04/09 11:02:33;;;;;;;28.55;22.60;;;23.70;56.10;;;;;;5021488;28;20029;-49
2023/04/09 11:05:28;;;;;;;30.45;22.48;;;22.40;60.50;;;;;;5030556;28;20046;-47
2023/04/09 11:07:56;;;;;;;29.98;23.15;;;22.30;63.40;;;;;;5027253;28;20024;-44
2023/04/09 11:10:22;;;;;;;30.23;24.05;;;22.20;63.60;;;;;;5025946;28;20030;-47
2023/04/09 11:12:48;;;;;;;31.92;23.08;;;22.30;62.90;;;;;;5026095;28;20033;-49
2023/04/09 11:15:18;;;;;;;32.45;23.52;;;22.90;62.20;;;;;;5021753;28;20033;-49
2023/04/09 11:17:45;;;;;;;31.50;23.58;;;22.10;61.90;;;;;;5030012;28;20045;-45
2023/04/09 11:20:15;;;;;;;34.50;24.38;;;21.90;63.80;;;;;;5026257;28;20110;-43
2023/04/09 11:22:41;;;;;;;34.28;23.98;;;21.50;63.20;;;;;;5030522;28;20037;-44
2023/04/09 11:25:07;;;;;;;32.00;21.63;;;21.40;66.40;;;;;;5030254;28;20041;-46
2023/04/09 11:27:43;;;;;;;27.85;19.52;;;21.70;65.90;;;;;;5030428;28;20044;-44
2023/04/09 11:30:09;;;;;;;31.02;20.85;;;21.50;62.70;;;;;;5026546;28;20100;-46
2023/04/09 11:32:35;;;;;;;30.98;22.15;;;22.20;64.10;;;;;;5028664;28;20128;-47
2023/04/09 11:35:01;;;;;;;31.85;21.02;;;22.70;60.80;;;;;;5029745;28;20034;-51
2023/04/09 11:37:27;;;;;;;30.80;21.58;;;23.70;60.60;;;;;;5014932;28;20120;-48
2023/04/09 11:39:53;;;;;;;29.45;20.48;;;23.80;60.00;;;;;;5022535;28;20201;-45
2023/04/09 11:42:20;;;;;;;30.65;22.60;;;24.30;59.40;;;;;;5030021;28;20560;-50
2023/04/09 11:44:48;;;;;;;31.35;23.25;;;24.60;58.60;;;;;;5030286;28;20045;-50
2023/04/09 11:47:16;;;;;;;30.58;22.13;;;23.60;55.70;;;;;;5029621;28;20516;-49
2023/04/09 11:49:42;;;;;;;28.63;21.48;;;21.90;61.10;;;;;;5030509;28;20033;-45
2023/04/09 11:52:09;;;;;;;33.10;22.02;;;21.70;63.10;;;;;;5029698;28;20025;-48
2023/04/09 11:54:35;;;;;;;31.85;21.55;;;21.80;61.50;;;;;;5030112;28;20061;-45
2023/04/09 11:57:02;;;;;;;30.02;21.10;;;21.10;63.00;;;;;;5021906;28;20060;-53
2023/04/09 11:59:29;;;;;;;31.48;20.45;;;21.40;62.20;;;;;;5025699;28;20025;-47
2023/04/09 12:01:57;;;;;;;32.13;21.88;;;20.50;64.00;;;;;;5033508;28;20037;-47
2023/04/09 12:04:23;;;;;;;32.65;20.67;;;20.50;65.80;;;;;;5029969;28;20120;-53
2023/04/09 12:06:49;;;;;;;33.60;22.65;;;21.90;65.00;;;;;;5023740;28;20095;-45
2023/04/09 12:09:15;;;;;;;32.33;21.75;;;21.90;61.80;;;;;;5033556;28;20477;-44
2023/04/09 12:11:45;;;;;;;33.58;22.00;;;22.00;60.10;;;;;;5033450;28;20018;-45
2023/04/09 12:14:17;;;;;;;29.50;21.10;;;20.90;62.60;;;;;;5033565;28;20488;-44
2023/04/09 12:16:44;;;;;;;31.02;21.55;;;21.70;63.20;;;;;;5033356;28;20037;-52
2023/04/09 12:19:11;;;;;;;32.03;22.10;;;21.90;61.50;;;;;;5033671;28;20036;-49
2023/04/09 12:21:51;;;;;;;32.42;20.70;;;22.20;62.20;;;;;;5033421;28;20083;-44
2023/04/09 12:24:19;;;;;;;30.15;20.23;;;21.90;61.00;;;;;;5033329;28;20034;-47
2023/04/09 12:26:46;;;;;;;30.20;20.02;;;21.70;62.80;;;;;;5033196;28;20076;-47
2023/04/09 12:29:16;;;;;;;29.23;19.40;;;22.00;62.50;;;;;;5033042;28;20230;-46
2023/04/09 12:31:43;;;;;;;29.92;19.85;;;23.00;60.40;;;;;;5028234;28;20020;-48
2023/04/09 12:34:08;;;;;;;27.13;18.65;;;22.40;58.90;;;;;;5033422;28;20029;-45
2023/04/09 12:36:34;;;;;;;28.77;19.73;;;22.80;58.10;;;;;;5032866;28;20020;-47